createdAt,value
2017-03-21T00:00:31.542Z,11.91
2017-03-21T00:01:12.093Z,12.04
2017-03-21T00:01:52.706Z,12.1
2017-03-21T00:02:33.266Z,12
2017-03-21T00:03:13.834Z,11.91
2017-03-21T00:03:54.408Z,11.95
2017-03-21T00:04:34.978Z,12
2017-03-21T00:05:15.590Z,12.02
2017-03-21T00:05:56.204Z,11.97
2017-03-21T00:06:36.795Z,12
2017-03-21T00:07:17.362Z,11.95
2017-03-21T00:07:57.932Z,11.95
2017-03-21T00:08:38.509Z,12.07
2017-03-21T00:09:19.145Z,12.04
2017-03-21T00:09:59.722Z,11.99
2017-03-21T00:10:40.464Z,12
2017-03-21T00:11:21.142Z,12.03
2017-03-21T00:12:01.816Z,11.91
2017-03-21T00:12:42.507Z,12.02
2017-03-21T00:13:23.104Z,12.02
2017-03-21T00:14:03.699Z,11.95
2017-03-21T00:14:44.329Z,11.99
2017-03-21T00:15:24.906Z,12
2017-03-21T00:16:05.501Z,11.97
2017-03-21T00:16:46.094Z,11.97
2017-03-21T00:17:26.690Z,11.99
2017-03-21T00:18:07.271Z,12.03
2017-03-21T00:18:47.872Z,11.9
2017-03-21T00:19:28.454Z,11.94
2017-03-21T00:20:09.036Z,11.91
2017-03-21T00:20:49.615Z,12.02
2017-03-21T00:21:30.244Z,11.95
2017-03-21T00:22:10.823Z,11.99
2017-03-21T00:22:51.498Z,11.87
2017-03-21T00:23:32.084Z,11.97
2017-03-21T00:24:12.651Z,12
2017-03-21T00:24:53.229Z,11.94
2017-03-21T00:25:33.806Z,11.91
2017-03-21T00:26:14.398Z,11.94
2017-03-21T00:26:54.973Z,11.99
2017-03-21T00:27:35.605Z,11.97
2017-03-21T00:28:16.188Z,11.87
2017-03-21T00:28:56.849Z,11.91
2017-03-21T00:29:37.493Z,11.91
2017-03-21T00:30:18.080Z,12
2017-03-21T00:30:58.662Z,11.9
2017-03-21T00:31:39.253Z,12.02
2017-03-21T00:32:19.840Z,11.95
2017-03-21T00:33:00.437Z,11.91
2017-03-21T00:33:41.039Z,12
2017-03-21T00:34:21.618Z,11.91
2017-03-21T00:35:02.200Z,11.99
2017-03-21T00:35:42.804Z,11.94
2017-03-21T00:36:23.435Z,11.91
2017-03-21T00:37:04.000Z,11.91
2017-03-21T00:37:44.686Z,11.91
2017-03-21T00:38:25.265Z,11.94
2017-03-21T00:39:05.924Z,11.94
2017-03-21T00:39:46.531Z,11.94
2017-03-21T00:40:27.119Z,12
2017-03-21T00:41:07.715Z,11.91
2017-03-21T00:41:48.296Z,11.91
2017-03-21T00:42:28.886Z,11.88
2017-03-21T00:43:09.471Z,12
2017-03-21T00:43:50.050Z,11.9
2017-03-21T00:44:30.640Z,11.91
2017-03-21T00:45:11.229Z,11.94
2017-03-21T00:45:51.817Z,11.91
2017-03-21T00:46:32.393Z,11.94
2017-03-21T00:47:12.995Z,11.91
2017-03-21T00:47:53.620Z,11.91
2017-03-21T00:48:34.230Z,11.94
2017-03-21T00:49:14.796Z,11.94
2017-03-21T00:49:55.426Z,11.94
2017-03-21T00:50:36.009Z,11.95
2017-03-21T00:51:16.725Z,11.9
2017-03-21T00:51:57.316Z,11.99
2017-03-21T00:52:37.929Z,11.99
2017-03-21T00:53:18.549Z,11.88
2017-03-21T00:53:59.111Z,11.94
2017-03-21T00:54:39.771Z,11.95
2017-03-21T00:55:20.346Z,11.99
2017-03-21T00:56:00.923Z,11.91
2017-03-21T00:56:41.520Z,11.9
2017-03-21T00:57:22.102Z,11.95
2017-03-21T00:58:02.763Z,11.94
2017-03-21T00:58:43.355Z,11.9
2017-03-21T00:59:23.937Z,11.94
2017-03-21T01:00:04.513Z,11.88
2017-03-21T01:00:45.935Z,11.94
2017-03-21T01:01:26.516Z,11.91
2017-03-21T01:02:07.088Z,11.97
2017-03-21T01:02:47.667Z,11.97
2017-03-21T01:03:28.245Z,11.9
2017-03-21T01:04:08.823Z,11.94
2017-03-21T01:04:49.400Z,12
2017-03-21T01:05:29.981Z,11.95
2017-03-21T01:06:10.554Z,11.95
2017-03-21T01:06:51.149Z,11.97
2017-03-21T01:07:31.721Z,11.88
2017-03-21T01:08:12.332Z,11.97
2017-03-21T01:08:52.931Z,11.99
2017-03-21T01:09:33.545Z,11.97
2017-03-21T01:10:14.134Z,11.91
2017-03-21T01:10:54.814Z,11.91
2017-03-21T01:11:35.486Z,11.94
2017-03-21T01:12:16.063Z,11.94
2017-03-21T01:12:56.652Z,11.95
2017-03-21T01:13:37.219Z,11.94
2017-03-21T01:14:17.808Z,11.91
2017-03-21T01:14:58.402Z,11.95
2017-03-21T01:15:39.036Z,11.87
2017-03-21T01:16:19.634Z,11.94
2017-03-21T01:17:00.223Z,11.95
2017-03-21T01:17:40.808Z,11.99
2017-03-21T01:18:21.388Z,11.9
2017-03-21T01:19:01.975Z,11.9
2017-03-21T01:19:42.556Z,11.91
2017-03-21T01:20:23.150Z,11.88
2017-03-21T01:21:03.736Z,11.91
2017-03-21T01:21:44.296Z,11.87
2017-03-21T01:22:24.865Z,12
2017-03-21T01:23:05.453Z,11.94
2017-03-21T01:23:46.047Z,11.91
2017-03-21T01:24:26.617Z,11.91
2017-03-21T01:25:07.246Z,11.91
2017-03-21T01:25:47.880Z,11.91
2017-03-21T01:26:28.446Z,11.91
2017-03-21T01:27:09.030Z,11.94
2017-03-21T01:27:49.607Z,11.88
2017-03-21T01:28:30.165Z,11.97
2017-03-21T01:29:10.747Z,11.94
2017-03-21T01:29:51.334Z,11.99
2017-03-21T01:30:31.940Z,11.9
2017-03-21T01:31:12.498Z,11.95
2017-03-21T01:31:53.089Z,11.87
2017-03-21T01:32:33.674Z,11.95
2017-03-21T01:33:14.259Z,11.95
2017-03-21T01:33:54.841Z,11.91
2017-03-21T01:34:35.422Z,11.91
2017-03-21T01:35:16.023Z,11.87
2017-03-21T01:35:56.602Z,11.87
2017-03-21T01:36:37.180Z,11.97
2017-03-21T01:37:17.749Z,11.97
2017-03-21T01:37:58.326Z,11.95
2017-03-21T01:38:38.918Z,11.94
2017-03-21T01:39:19.514Z,12.02
2017-03-21T01:40:00.081Z,12.02
2017-03-21T01:40:40.670Z,12
2017-03-21T01:41:21.283Z,12.02
2017-03-21T01:42:01.852Z,11.95
2017-03-21T01:42:42.434Z,12
2017-03-21T01:43:23.058Z,11.97
2017-03-21T01:44:03.618Z,11.99
2017-03-21T01:44:44.183Z,11.95
2017-03-21T01:45:24.798Z,12.03
2017-03-21T01:46:05.380Z,12.03
2017-03-21T01:46:46.000Z,12.04
2017-03-21T01:47:26.592Z,11.97
2017-03-21T01:48:07.179Z,11.99
2017-03-21T01:48:47.814Z,11.94
2017-03-21T01:49:28.410Z,12.02
2017-03-21T01:50:08.994Z,12.07
2017-03-21T01:50:49.561Z,12.1
2017-03-21T01:51:30.166Z,12
2017-03-21T01:52:10.755Z,11.97
2017-03-21T01:52:51.351Z,12.04
2017-03-21T01:53:31.944Z,12.03
2017-03-21T01:54:12.502Z,11.9
2017-03-21T01:54:53.134Z,12
2017-03-21T01:55:33.740Z,11.97
2017-03-21T01:56:14.330Z,12.03
2017-03-21T01:56:54.911Z,12
2017-03-21T01:57:35.566Z,12
2017-03-21T01:58:16.155Z,11.95
2017-03-21T01:58:57.196Z,11.88
2017-03-21T01:59:37.801Z,12.03
2017-03-21T02:00:18.406Z,12.06
2017-03-21T02:00:59.051Z,12.02
2017-03-21T02:01:39.624Z,12.06
2017-03-21T02:02:20.210Z,12.02
2017-03-21T02:03:00.788Z,12.03
2017-03-21T02:03:41.349Z,12.04
2017-03-21T02:04:21.964Z,11.99
2017-03-21T02:05:02.559Z,11.95
2017-03-21T02:05:43.140Z,11.99
2017-03-21T02:06:23.720Z,11.97
2017-03-21T02:07:04.308Z,12.03
2017-03-21T02:07:44.882Z,11.95
2017-03-21T02:08:25.460Z,12.02
2017-03-21T02:09:06.053Z,11.97
2017-03-21T02:09:46.626Z,11.94
2017-03-21T02:10:27.265Z,12.03
2017-03-21T02:11:07.802Z,12
2017-03-21T02:11:48.388Z,12.04
2017-03-21T02:12:28.999Z,11.99
2017-03-21T02:13:09.572Z,11.91
2017-03-21T02:13:50.173Z,11.9
2017-03-21T02:14:30.757Z,12.03
2017-03-21T02:15:11.343Z,11.95
2017-03-21T02:15:51.925Z,11.95
2017-03-21T02:16:32.506Z,11.94
2017-03-21T02:17:13.079Z,11.91
2017-03-21T02:17:53.651Z,12
2017-03-21T02:18:34.294Z,11.95
2017-03-21T02:19:14.821Z,11.94
2017-03-21T02:19:55.425Z,12
2017-03-21T02:20:36.022Z,12.06
2017-03-21T02:21:16.589Z,12.06
2017-03-21T02:21:57.193Z,11.94
2017-03-21T02:22:37.772Z,12.02
2017-03-21T02:23:18.361Z,12.03
2017-03-21T02:23:59.015Z,11.87
2017-03-21T02:24:39.636Z,11.9
2017-03-21T02:25:20.210Z,12.02
2017-03-21T02:26:00.797Z,11.94
2017-03-21T02:26:41.384Z,11.91
2017-03-21T02:27:21.977Z,12.03
2017-03-21T02:28:02.560Z,11.91
2017-03-21T02:28:43.142Z,12.03
2017-03-21T02:29:23.737Z,12.02
2017-03-21T02:30:04.321Z,11.99
2017-03-21T02:30:44.896Z,11.87
2017-03-21T02:31:25.533Z,11.94
2017-03-21T02:32:06.165Z,11.9
2017-03-21T02:32:46.746Z,12
2017-03-21T02:33:27.351Z,11.9
2017-03-21T02:34:07.943Z,12.03
2017-03-21T02:34:48.526Z,11.97
2017-03-21T02:35:29.091Z,12.04
2017-03-21T02:36:09.698Z,11.94
2017-03-21T02:36:50.307Z,11.95
2017-03-21T02:37:30.980Z,11.91
2017-03-21T02:38:11.573Z,11.97
2017-03-21T02:38:52.133Z,11.91
2017-03-21T02:39:32.786Z,11.9
2017-03-21T02:40:13.352Z,11.95
2017-03-21T02:40:53.937Z,11.9
2017-03-21T02:41:34.532Z,11.91
2017-03-21T02:42:15.116Z,11.95
2017-03-21T02:42:55.705Z,11.91
2017-03-21T02:43:36.295Z,11.91
2017-03-21T02:44:16.860Z,12.02
2017-03-21T02:44:57.477Z,11.91
2017-03-21T02:45:38.054Z,11.99
2017-03-21T02:46:18.645Z,11.94
2017-03-21T02:46:59.220Z,11.95
2017-03-21T02:47:39.860Z,11.9
2017-03-21T02:48:20.435Z,11.91
2017-03-21T02:49:01.026Z,11.9
2017-03-21T02:49:41.597Z,11.91
2017-03-21T02:50:22.180Z,11.88
2017-03-21T02:51:02.808Z,11.9
2017-03-21T02:51:43.385Z,11.91
2017-03-21T02:52:23.982Z,11.91
2017-03-21T02:53:04.599Z,11.91
2017-03-21T02:53:45.178Z,11.9
2017-03-21T02:54:25.800Z,11.95
2017-03-21T02:55:06.380Z,11.86
2017-03-21T02:55:46.981Z,11.91
2017-03-21T02:56:27.588Z,11.81
2017-03-21T02:57:08.169Z,11.84
2017-03-21T02:57:48.788Z,11.97
2017-03-21T02:58:29.360Z,11.84
2017-03-21T02:59:09.949Z,11.83
2017-03-21T02:59:50.530Z,11.81
2017-03-21T03:00:31.121Z,11.84
2017-03-21T03:01:11.795Z,11.88
2017-03-21T03:01:52.369Z,11.88
2017-03-21T03:02:32.975Z,11.8
2017-03-21T03:03:13.564Z,11.83
2017-03-21T03:03:54.171Z,11.86
2017-03-21T03:04:34.831Z,11.83
2017-03-21T03:05:15.394Z,11.83
2017-03-21T03:05:56.014Z,11.83
2017-03-21T03:06:36.636Z,11.87
2017-03-21T03:07:17.218Z,11.86
2017-03-21T03:07:57.870Z,11.86
2017-03-21T03:08:38.445Z,11.86
2017-03-21T03:09:19.026Z,11.81
2017-03-21T03:09:59.588Z,11.8
2017-03-21T03:10:40.212Z,11.84
2017-03-21T03:11:20.790Z,11.97
2017-03-21T03:12:01.379Z,11.8
2017-03-21T03:12:41.973Z,11.86
2017-03-21T03:13:22.564Z,11.77
2017-03-21T03:14:03.182Z,11.81
2017-03-21T03:14:43.769Z,11.84
2017-03-21T03:15:24.343Z,11.86
2017-03-21T03:16:04.956Z,11.78
2017-03-21T03:16:45.565Z,11.88
2017-03-21T03:17:26.134Z,11.84
2017-03-21T03:18:06.771Z,11.86
2017-03-21T03:18:47.380Z,11.81
2017-03-21T03:19:27.959Z,11.8
2017-03-21T03:20:08.562Z,11.78
2017-03-21T03:20:49.139Z,11.83
2017-03-21T03:21:29.713Z,11.78
2017-03-21T03:22:10.340Z,11.81
2017-03-21T03:22:50.954Z,11.84
2017-03-21T03:23:31.546Z,11.78
2017-03-21T03:24:12.133Z,11.84
2017-03-21T03:24:52.728Z,11.73
2017-03-21T03:25:33.322Z,11.73
2017-03-21T03:26:13.917Z,11.86
2017-03-21T03:26:54.524Z,11.73
2017-03-21T03:27:35.091Z,11.81
2017-03-21T03:28:15.702Z,11.7
2017-03-21T03:28:56.298Z,11.73
2017-03-21T03:29:36.891Z,11.7
2017-03-21T03:30:17.470Z,11.69
2017-03-21T03:30:58.061Z,11.78
2017-03-21T03:31:38.646Z,11.72
2017-03-21T03:32:19.251Z,11.68
2017-03-21T03:32:59.805Z,11.7
2017-03-21T03:33:40.394Z,11.66
2017-03-21T03:34:20.961Z,11.66
2017-03-21T03:35:01.538Z,11.69
2017-03-21T03:35:42.138Z,11.72
2017-03-21T03:36:22.767Z,11.73
2017-03-21T03:37:03.338Z,11.72
2017-03-21T03:37:43.927Z,11.73
2017-03-21T03:38:24.513Z,11.77
2017-03-21T03:39:05.086Z,11.7
2017-03-21T03:39:45.676Z,11.72
2017-03-21T03:40:26.269Z,11.73
2017-03-21T03:41:06.925Z,11.7
2017-03-21T03:41:47.529Z,11.73
2017-03-21T03:42:28.109Z,11.73
2017-03-21T03:43:08.690Z,11.69
2017-03-21T03:43:49.278Z,11.68
2017-03-21T03:44:29.840Z,11.73
2017-03-21T03:45:10.442Z,11.75
2017-03-21T03:45:51.014Z,11.68
2017-03-21T03:46:31.589Z,11.72
2017-03-21T03:47:12.165Z,11.65
2017-03-21T03:47:52.762Z,11.73
2017-03-21T03:48:33.341Z,11.69
2017-03-21T03:49:13.918Z,11.7
2017-03-21T03:49:54.522Z,11.69
2017-03-21T03:50:35.125Z,11.66
2017-03-21T03:51:15.734Z,11.69
2017-03-21T03:51:56.289Z,11.75
2017-03-21T03:52:36.854Z,11.77
2017-03-21T03:53:17.442Z,11.77
2017-03-21T03:53:58.035Z,11.69
2017-03-21T03:54:38.612Z,11.73
2017-03-21T03:55:19.198Z,11.77
2017-03-21T03:55:59.768Z,11.69
2017-03-21T03:56:40.345Z,11.72
2017-03-21T03:57:20.918Z,11.72
2017-03-21T03:58:01.537Z,11.66
2017-03-21T03:58:42.113Z,11.65
2017-03-21T03:59:22.737Z,11.72
2017-03-21T04:00:03.327Z,11.73
2017-03-21T04:00:43.974Z,11.69
2017-03-21T04:01:24.569Z,11.73
2017-03-21T04:02:05.135Z,11.72
2017-03-21T04:02:45.742Z,11.7
2017-03-21T04:03:26.343Z,11.68
2017-03-21T04:04:06.970Z,11.72
2017-03-21T04:04:47.555Z,11.69
2017-03-21T04:05:28.179Z,11.65
2017-03-21T04:06:08.755Z,11.78
2017-03-21T04:06:49.348Z,11.66
2017-03-21T04:07:29.976Z,11.7
2017-03-21T04:08:10.579Z,11.73
2017-03-21T04:08:51.157Z,11.65
2017-03-21T04:09:31.749Z,11.68
2017-03-21T04:10:12.338Z,11.66
2017-03-21T04:10:52.951Z,11.63
2017-03-21T04:11:33.533Z,11.65
2017-03-21T04:12:14.144Z,11.68
2017-03-21T04:12:54.768Z,11.7
2017-03-21T04:13:35.352Z,11.7
2017-03-21T04:14:15.931Z,11.66
2017-03-21T04:14:56.510Z,11.6
2017-03-21T04:15:37.091Z,11.65
2017-03-21T04:16:17.700Z,11.68
2017-03-21T04:16:58.272Z,11.66
2017-03-21T04:17:38.851Z,11.62
2017-03-21T04:18:19.441Z,11.69
2017-03-21T04:19:00.030Z,11.63
2017-03-21T04:19:40.611Z,11.68
2017-03-21T04:20:21.180Z,11.66
2017-03-21T04:21:01.771Z,11.65
2017-03-21T04:21:42.385Z,11.69
2017-03-21T04:22:22.992Z,11.68
2017-03-21T04:23:03.595Z,11.69
2017-03-21T04:23:44.206Z,11.75
2017-03-21T04:24:24.848Z,11.77
2017-03-21T04:25:05.386Z,11.65
2017-03-21T04:25:46.014Z,11.7
2017-03-21T04:26:26.592Z,11.65
2017-03-21T04:27:07.207Z,11.73
2017-03-21T04:27:47.818Z,11.62
2017-03-21T04:28:28.443Z,11.65
2017-03-21T04:29:09.006Z,11.77
2017-03-21T04:29:49.592Z,11.65
2017-03-21T04:30:30.185Z,11.63
2017-03-21T04:31:10.787Z,11.72
2017-03-21T04:31:51.379Z,11.68
2017-03-21T04:32:31.955Z,11.62
2017-03-21T04:33:12.541Z,11.69
2017-03-21T04:33:53.161Z,11.68
2017-03-21T04:34:33.750Z,11.7
2017-03-21T04:35:14.359Z,11.77
2017-03-21T04:35:54.971Z,11.73
2017-03-21T04:36:35.576Z,11.62
2017-03-21T04:37:16.157Z,11.65
2017-03-21T04:37:56.741Z,11.68
2017-03-21T04:38:37.324Z,11.68
2017-03-21T04:39:17.900Z,11.65
2017-03-21T04:39:58.499Z,11.77
2017-03-21T04:40:39.086Z,11.59
2017-03-21T04:41:19.713Z,11.72
2017-03-21T04:42:00.291Z,11.65
2017-03-21T04:42:40.867Z,11.65
2017-03-21T04:43:21.477Z,11.68
2017-03-21T04:44:02.069Z,11.72
2017-03-21T04:44:42.690Z,11.66
2017-03-21T04:45:23.273Z,11.69
2017-03-21T04:46:03.877Z,11.62
2017-03-21T04:46:44.479Z,11.66
2017-03-21T04:47:25.047Z,11.57
2017-03-21T04:48:05.651Z,11.65
2017-03-21T04:48:46.226Z,11.65
2017-03-21T04:49:26.819Z,11.57
2017-03-21T04:50:07.394Z,11.59
2017-03-21T04:50:47.973Z,11.62
2017-03-21T04:51:28.596Z,11.55
2017-03-21T04:52:09.176Z,11.66
2017-03-21T04:52:49.798Z,11.6
2017-03-21T04:53:30.366Z,11.55
2017-03-21T04:54:10.940Z,11.65
2017-03-21T04:54:51.527Z,11.59
2017-03-21T04:55:32.125Z,11.66
2017-03-21T04:56:12.705Z,11.6
2017-03-21T04:56:53.312Z,11.65
2017-03-21T04:57:33.897Z,11.62
2017-03-21T04:58:14.496Z,11.57
2017-03-21T04:58:55.077Z,11.55
2017-03-21T04:59:35.666Z,11.6
2017-03-21T05:00:16.300Z,11.59
2017-03-21T05:00:56.866Z,11.51
2017-03-21T05:01:37.500Z,11.52
2017-03-21T05:02:18.077Z,11.51
2017-03-21T05:02:58.649Z,11.57
2017-03-21T05:03:39.240Z,11.54
2017-03-21T05:04:19.813Z,11.48
2017-03-21T05:05:00.394Z,11.54
2017-03-21T05:05:41.012Z,11.47
2017-03-21T05:06:21.547Z,11.51
2017-03-21T05:07:02.140Z,11.51
2017-03-21T05:07:42.723Z,11.48
2017-03-21T05:08:23.315Z,11.54
2017-03-21T05:09:03.916Z,11.47
2017-03-21T05:09:44.503Z,11.51
2017-03-21T05:10:25.074Z,11.48
2017-03-21T05:11:05.696Z,11.48
2017-03-21T05:11:46.275Z,11.47
2017-03-21T05:12:26.953Z,11.47
2017-03-21T05:13:07.565Z,11.37
2017-03-21T05:13:48.127Z,11.5
2017-03-21T05:14:28.766Z,11.3
2017-03-21T05:15:09.339Z,11.48
2017-03-21T05:15:49.975Z,11.33
2017-03-21T05:16:30.619Z,11.4
2017-03-21T05:17:11.174Z,11.37
2017-03-21T05:17:51.781Z,11.44
2017-03-21T05:18:32.361Z,11.4
2017-03-21T05:19:12.948Z,11.37
2017-03-21T05:19:53.556Z,11.36
2017-03-21T05:20:34.250Z,11.36
2017-03-21T05:21:14.861Z,11.4
2017-03-21T05:21:55.441Z,11.33
2017-03-21T05:22:36.076Z,11.35
2017-03-21T05:23:16.653Z,11.36
2017-03-21T05:23:57.238Z,11.26
2017-03-21T05:24:37.803Z,11.29
2017-03-21T05:25:18.369Z,11.35
2017-03-21T05:25:58.946Z,11.29
2017-03-21T05:26:39.553Z,11.32
2017-03-21T05:27:20.129Z,11.35
2017-03-21T05:28:00.723Z,11.29
2017-03-21T05:28:41.367Z,11.26
2017-03-21T05:29:21.999Z,11.26
2017-03-21T05:30:02.616Z,11.35
2017-03-21T05:30:43.306Z,11.36
2017-03-21T05:31:23.977Z,11.29
2017-03-21T05:32:04.577Z,11.35
2017-03-21T05:32:45.162Z,11.32
2017-03-21T05:33:25.744Z,11.33
2017-03-21T05:34:06.366Z,11.29
2017-03-21T05:34:47.003Z,11.32
2017-03-21T05:35:27.589Z,11.35
2017-03-21T05:36:08.205Z,11.35
2017-03-21T05:36:48.792Z,11.32
2017-03-21T05:37:29.421Z,11.35
2017-03-21T05:38:10.058Z,11.32
2017-03-21T05:38:50.645Z,11.29
2017-03-21T05:39:31.267Z,11.35
2017-03-21T05:40:11.839Z,11.32
2017-03-21T05:40:52.442Z,11.33
2017-03-21T05:41:33.021Z,11.32
2017-03-21T05:42:13.626Z,11.33
2017-03-21T05:42:54.200Z,11.32
2017-03-21T05:43:34.790Z,11.33
2017-03-21T05:44:15.351Z,11.33
2017-03-21T05:44:55.920Z,11.36
2017-03-21T05:45:36.533Z,11.36
2017-03-21T05:46:17.124Z,11.32
2017-03-21T05:46:57.734Z,11.33
2017-03-21T05:47:38.319Z,11.36
2017-03-21T05:48:18.949Z,11.32
2017-03-21T05:48:59.509Z,11.32
2017-03-21T05:49:40.151Z,11.4
2017-03-21T05:50:20.751Z,11.33
2017-03-21T05:51:01.336Z,11.36
2017-03-21T05:51:41.956Z,11.36
2017-03-21T05:52:22.537Z,11.32
2017-03-21T05:53:03.125Z,11.32
2017-03-21T05:53:43.722Z,11.29
2017-03-21T05:54:24.307Z,11.35
2017-03-21T05:55:04.926Z,11.35
2017-03-21T05:55:45.581Z,11.33
2017-03-21T05:56:26.223Z,11.36
2017-03-21T05:57:06.853Z,11.36
2017-03-21T05:57:47.684Z,11.33
2017-03-21T05:58:28.370Z,11.37
2017-03-21T05:59:09.120Z,11.33
2017-03-21T05:59:49.919Z,11.36
2017-03-21T06:00:30.632Z,11.36
2017-03-21T06:01:11.377Z,11.32
2017-03-21T06:01:52.152Z,11.36
2017-03-21T06:02:33.189Z,11.35
2017-03-21T06:03:13.890Z,11.36
2017-03-21T06:03:54.627Z,11.36
2017-03-21T06:04:35.688Z,11.36
2017-03-21T06:05:16.356Z,11.35
2017-03-21T06:05:57.075Z,11.4
2017-03-21T06:06:37.730Z,11.43
2017-03-21T06:07:18.591Z,11.35
2017-03-21T06:07:59.381Z,11.32
2017-03-21T06:08:40.137Z,11.32
2017-03-21T06:09:20.957Z,11.41
2017-03-21T06:10:01.744Z,11.35
2017-03-21T06:10:42.388Z,11.41
2017-03-21T06:11:23.189Z,11.37
2017-03-21T06:12:03.957Z,11.36
2017-03-21T06:12:44.903Z,11.41
2017-03-21T06:13:25.659Z,11.37
2017-03-21T06:14:06.384Z,11.41
2017-03-21T06:14:47.064Z,11.41
2017-03-21T06:15:27.925Z,11.41
2017-03-21T06:16:08.627Z,11.37
2017-03-21T06:16:49.419Z,11.36
2017-03-21T06:17:30.163Z,11.45
2017-03-21T06:18:10.961Z,11.59
2017-03-21T06:18:51.856Z,11.68
2017-03-21T06:19:32.552Z,11.57
2017-03-21T06:20:13.248Z,11.68
2017-03-21T06:20:54.102Z,11.83
2017-03-21T06:21:34.790Z,11.84
2017-03-21T06:22:15.582Z,11.87
2017-03-21T06:22:56.237Z,12.02
2017-03-21T06:23:36.946Z,12.12
2017-03-21T06:24:17.654Z,12.17
2017-03-21T06:24:58.375Z,12.28
2017-03-21T06:25:39.006Z,12.35
2017-03-21T06:26:19.731Z,12.4
2017-03-21T06:27:00.346Z,12.4
2017-03-21T06:27:41.093Z,12.53
2017-03-21T06:28:21.865Z,12.46
2017-03-21T06:29:02.513Z,12.54
2017-03-21T06:29:43.206Z,12.54
2017-03-21T06:30:24.013Z,12.67
2017-03-21T06:31:14.239Z,12.6
2017-03-21T06:32:04.387Z,12.58
2017-03-21T06:32:45.147Z,12.6
2017-03-21T06:33:25.892Z,12.54
2017-03-21T06:34:06.608Z,12.58
2017-03-21T06:34:47.634Z,12.73
2017-03-21T06:35:28.359Z,12.73
2017-03-21T06:36:09.072Z,12.72
2017-03-21T06:36:49.860Z,12.87
2017-03-21T06:37:30.586Z,12.87
2017-03-21T06:38:11.417Z,12.91
2017-03-21T06:38:52.221Z,12.93
2017-03-21T06:39:33.002Z,12.94
2017-03-21T06:40:13.802Z,12.93
2017-03-21T06:40:54.390Z,12.91
2017-03-21T06:41:35.039Z,12.82
2017-03-21T06:42:15.836Z,12.75
2017-03-21T06:42:56.549Z,12.73
2017-03-21T06:43:37.289Z,12.57
2017-03-21T06:44:18.231Z,12.65
2017-03-21T06:44:58.898Z,12.53
2017-03-21T06:45:40.031Z,12.54
2017-03-21T06:46:20.821Z,12.49
2017-03-21T06:47:01.679Z,12.43
2017-03-21T06:47:42.392Z,12.49
2017-03-21T06:48:23.102Z,12.45
2017-03-21T06:49:03.775Z,12.39
2017-03-21T06:49:44.498Z,12.4
2017-03-21T06:50:25.198Z,12.35
2017-03-21T06:51:06.022Z,12.31
2017-03-21T06:51:46.745Z,12.21
2017-03-21T06:52:27.471Z,12.22
2017-03-21T06:53:08.248Z,12.21
2017-03-21T06:53:48.998Z,12.22
2017-03-21T06:54:29.644Z,12.17
2017-03-21T06:55:10.307Z,12.1
2017-03-21T06:55:51.131Z,12.15
2017-03-21T06:56:31.904Z,12.1
2017-03-21T06:57:12.674Z,12.12
2017-03-21T06:57:53.564Z,12.06
2017-03-21T06:58:34.352Z,12.09
2017-03-21T06:59:15.127Z,11.99
2017-03-21T06:59:55.942Z,12.09
2017-03-21T07:00:36.684Z,11.97
2017-03-21T07:01:17.425Z,11.9
2017-03-21T07:01:58.204Z,11.91
2017-03-21T07:02:38.850Z,11.97
2017-03-21T07:03:19.631Z,11.97
2017-03-21T07:04:01.828Z,11.94
2017-03-21T07:04:42.548Z,11.91
2017-03-21T07:05:23.254Z,11.91
2017-03-21T07:06:04.067Z,11.97
2017-03-21T07:06:44.782Z,11.9
2017-03-21T07:07:25.487Z,11.91
2017-03-21T07:08:06.168Z,11.81
2017-03-21T07:08:46.858Z,11.81
2017-03-21T07:09:27.481Z,11.72
2017-03-21T07:10:08.268Z,11.63
2017-03-21T07:10:49.051Z,11.73
2017-03-21T07:11:29.660Z,11.55
2017-03-21T07:12:10.783Z,11.54
2017-03-21T07:12:51.443Z,11.5
2017-03-21T07:13:32.249Z,11.36
2017-03-21T07:14:12.954Z,11.4
2017-03-21T07:14:53.733Z,11.29
2017-03-21T07:15:34.514Z,11.29
2017-03-21T07:16:15.249Z,11.32
2017-03-21T07:16:55.843Z,11.26
2017-03-21T07:17:36.649Z,11.23
2017-03-21T07:18:17.447Z,11.23
2017-03-21T07:18:58.268Z,11.32
2017-03-21T07:19:39.030Z,11.23
2017-03-21T07:20:19.752Z,11.26
2017-03-21T07:21:00.651Z,11.3
2017-03-21T07:21:41.367Z,11.27
2017-03-21T07:22:22.121Z,11.25
2017-03-21T07:23:02.924Z,11.19
2017-03-21T07:23:43.794Z,11.26
2017-03-21T07:24:24.584Z,11.26
2017-03-21T07:25:05.238Z,11.25
2017-03-21T07:25:45.935Z,11.27
2017-03-21T07:26:26.665Z,11.18
2017-03-21T07:27:07.392Z,11.19
2017-03-21T07:27:48.212Z,11.27
2017-03-21T07:28:28.840Z,11.23
2017-03-21T07:29:09.551Z,11.26
2017-03-21T07:29:50.184Z,11.27
2017-03-21T07:30:30.935Z,11.27
2017-03-21T07:31:11.752Z,11.26
2017-03-21T07:31:52.431Z,11.18
2017-03-21T07:32:33.579Z,11.26
2017-03-21T07:33:14.117Z,11.22
2017-03-21T07:33:54.610Z,11.32
2017-03-21T07:34:35.341Z,11.23
2017-03-21T07:35:16.162Z,11.29
2017-03-21T07:35:56.894Z,11.3
2017-03-21T07:36:37.506Z,11.35
2017-03-21T07:37:18.234Z,11.33
2017-03-21T07:37:58.942Z,11.41
2017-03-21T07:38:39.819Z,11.36
2017-03-21T07:39:20.493Z,11.36
2017-03-21T07:40:01.283Z,11.29
2017-03-21T07:40:42.065Z,11.26
2017-03-21T07:41:23.081Z,11.22
2017-03-21T07:42:06.847Z,11.26
2017-03-21T07:42:48.760Z,11.3
2017-03-21T07:43:33.090Z,11.27
2017-03-21T07:44:17.008Z,11.27
2017-03-21T07:45:01.877Z,11.19
2017-03-21T07:45:44.532Z,11.22
2017-03-21T07:46:26.945Z,11.12
2017-03-21T07:47:07.663Z,11.15
2017-03-21T07:47:48.373Z,11.23
2017-03-21T07:48:29.234Z,11.23
2017-03-21T07:49:10.081Z,11.22
2017-03-21T07:49:50.807Z,11.17
2017-03-21T07:50:31.583Z,11.25
2017-03-21T07:51:12.387Z,11.25
2017-03-21T07:51:53.324Z,11.22
2017-03-21T07:52:33.988Z,11.27
2017-03-21T07:53:14.806Z,11.25
2017-03-21T07:53:55.469Z,11.26
2017-03-21T07:54:36.333Z,11.22
2017-03-21T07:55:17.110Z,11.17
2017-03-21T07:55:57.931Z,11.18
2017-03-21T07:56:38.769Z,11.12
2017-03-21T07:57:19.460Z,11.08
2017-03-21T07:58:00.243Z,11.12
2017-03-21T07:58:40.963Z,11.23
2017-03-21T07:59:21.836Z,11.23
2017-03-21T08:00:02.712Z,11.22
2017-03-21T08:00:43.434Z,11.25
2017-03-21T08:01:24.162Z,11.3
2017-03-21T08:02:04.821Z,11.25
2017-03-21T08:02:45.557Z,11.33
2017-03-21T08:03:26.366Z,11.35
2017-03-21T08:04:07.171Z,11.52
2017-03-21T08:04:47.904Z,11.6
2017-03-21T08:05:28.619Z,11.65
2017-03-21T08:06:09.378Z,11.75
2017-03-21T08:06:50.232Z,11.87
2017-03-21T08:07:31.001Z,12.02
2017-03-21T08:08:11.751Z,12.15
2017-03-21T08:08:52.453Z,12.27
2017-03-21T08:09:33.268Z,12.29
2017-03-21T08:10:13.977Z,12.36
2017-03-21T08:10:54.837Z,12.42
2017-03-21T08:11:35.564Z,12.53
2017-03-21T08:12:16.309Z,12.55
2017-03-21T08:12:56.978Z,12.6
2017-03-21T08:13:37.835Z,12.61
2017-03-21T08:14:18.597Z,12.5
2017-03-21T08:14:59.274Z,12.58
2017-03-21T08:15:40.023Z,12.54
2017-03-21T08:16:20.786Z,12.58
2017-03-21T08:17:01.594Z,12.57
2017-03-21T08:17:42.356Z,12.64
2017-03-21T08:18:23.071Z,12.57
2017-03-21T08:19:03.871Z,12.7
2017-03-21T08:19:44.565Z,12.79
2017-03-21T08:20:25.306Z,12.87
2017-03-21T08:21:05.961Z,13.04
2017-03-21T08:21:46.769Z,13.2
2017-03-21T08:22:27.507Z,13.39
2017-03-21T08:23:08.287Z,13.39
2017-03-21T08:23:49.113Z,13.46
2017-03-21T08:24:29.846Z,13.59
2017-03-21T08:25:10.645Z,13.65
2017-03-21T08:25:51.492Z,13.62
2017-03-21T08:26:32.239Z,13.57
2017-03-21T08:27:12.903Z,13.46
2017-03-21T08:27:53.608Z,13.52
2017-03-21T08:28:34.319Z,13.42
2017-03-21T08:29:15.032Z,13.39
2017-03-21T08:29:55.762Z,13.35
2017-03-21T08:30:36.653Z,13.23
2017-03-21T08:31:17.415Z,13.23
2017-03-21T08:31:58.320Z,13.23
2017-03-21T08:32:39.087Z,13.08
2017-03-21T08:33:19.773Z,13.11
2017-03-21T08:34:00.500Z,13.12
2017-03-21T08:34:41.203Z,13.05
2017-03-21T08:35:21.990Z,13.16
2017-03-21T08:36:02.701Z,13.27
2017-03-21T08:36:43.585Z,13.22
2017-03-21T08:37:24.343Z,13.18
2017-03-21T08:38:05.150Z,13.31
2017-03-21T08:38:45.819Z,13.35
2017-03-21T08:39:26.609Z,13.38
2017-03-21T08:40:07.499Z,13.46
2017-03-21T08:40:48.313Z,13.47
2017-03-21T08:41:29.146Z,13.46
2017-03-21T08:42:09.903Z,13.54
2017-03-21T08:42:50.644Z,13.6
2017-03-21T08:43:31.342Z,13.71
2017-03-21T08:44:12.176Z,13.75
2017-03-21T08:44:52.972Z,13.81
2017-03-21T08:45:33.917Z,13.86
2017-03-21T08:46:14.702Z,13.87
2017-03-21T08:46:55.462Z,13.9
2017-03-21T08:47:36.004Z,13.89